ADDS METAR Data INFO
IDs: Format: Raw Decoded Include TAF

Data at: 0338 UTC 24 Feb 2017

Region: TOP
KATL 240252Z 13004KT 10SM FEW250 18/11 A2987 RMK AO2 SLP111 T01830111 53009

KBOS 240254Z 22015KT 10SM FEW200 11/09 A2985 RMK AO2 SLP108 T01110094 51017

KBWI 240254Z 13004KT 10SM FEW180 SCT250 14/10 A2987 RMK AO2 SLP116 T01390100 51010

KCLE 240251Z 03009KT 9SM SCT050 BKN065 OVC080 12/07 A2981 RMK AO2 SLP094 T01170072 58002

KCLT 240252Z 11005KT 10SM FEW055 18/10 A2992 RMK AO2 SLP125 T01830100 51010

KCVG 240252Z 16011KT 10SM FEW050 SCT080 SCT250 17/14 A2976 RMK AO2 SLP071 T01720139 55004

KDCA 240252Z 19010KT 10SM SCT250 17/11 A2988 RMK AO2 SLP118 T01670111 51009

KDEN 240329Z 01011KT 7SM -SN SCT012 OVC022 M07/M10 A2983 RMK AO2 SNE17B22 P0000 T10721100

KDFW 240253Z 18017G24KT 10SM FEW070 25/14 A2950 RMK AO2 SLP981 T02500139 51014

KDTW 240253Z 05013KT 10SM OVC140 07/02 A2983 RMK AO2 SLP103 T00670022 51012

KEWR 240251Z 15003KT 10SM FEW060 SCT080 BKN250 15/11 A2988 RMK AO2 SLP118 T01500106 53009

KFLL 240253Z 28007KT 10SM CLR 21/16 A2970 RMK AO2 SLP056 T02110161 51021

KIAD 240252Z 18007KT 10SM BKN200 18/10 A2987 RMK AO2 SLP113 T01780100 51007

KIAH 240253Z 16010KT 10SM CLR 19/16 A2967 RMK AO2 SLP048 T01940161 51005

KJFK 240251Z 17006KT 10SM FEW080 BKN095 BKN250 09/08 A2991 RMK AO2 SLP128 T00890083 51009

KLAS 240256Z 32007G17KT 10SM FEW100 11/M16 A2992 RMK AO2 SLP130 T01061156 53010

KLAX 240253Z 36009KT 10SM FEW040 13/M04 A3006 RMK AO2 SLP180 T01281039 53008

KLGA 240251Z COR VRB04KT 10SM FEW070 SCT250 14/09 A2988 RMK AO2 SLP119 T01440089 53008 $

KMCO 240253Z 36008KT 10SM FEW010 20/18 A2973 RMK AO2 SLP066 60000 T02000178 53015

KMDW 240253Z 03011KT 9SM -RA BKN008 BKN012 OVC027 04/02 A2973 RMK AO2 RAE28B47 SLP073 P0003 60012 T00440022 56016

KMEM 240254Z 16011KT 10SM FEW045 19/16 A2967 RMK AO2 SLP045 T01940156 53002

KMIA 240253Z 24006KT 10SM CLR 19/16 A2971 RMK AO2 SLP061 T01940161 51021

KMSP 240253Z 03012KT 10SM SCT130 SCT180 OVC230 M01/M06 A2989 RMK AO2 SLP130 T10111056 58010

KORD 240251Z 03011G19KT 10SM -RA OVC006 04/02 A2975 RMK AO2 SLP076 P0012 60016 T00390022 56008

KPDX 240253Z 29006KT 10SM FEW035 BKN070 04/00 A3025 RMK AO2 SLP245 T00390000 53007

KPHL 240254Z 21006KT 10SM SCT250 16/11 A2990 RMK AO2 SLP125 T01610106 51014

KPHX 240251Z 22006KT 10SM FEW095 13/M04 A2992 RMK AO2 SLP125 T01281044 53010

KPIT 240251Z 18004KT 10SM SCT075 OVC160 16/12 A2982 RMK AO2 LTG DSNT N AND NE SLP103 T01560117 50000

KSAN 240251Z 30003KT 10SM FEW025 FEW041 13/02 A3011 RMK AO2 SLP196 T01280017 53010

KSEA 240253Z 14007KT 10SM FEW025 SCT070 03/01 A3020 RMK AO2 SLP236 T00280006 56006

KSFO 240256Z 28012KT 10SM FEW041 09/02 A3020 RMK AO2 SLP227 T00940022 53003

KSLC 240254Z 28008KT 10SM FEW031 BKN047 OVC055 M02/M04 A2988 RMK AO2 SNE0156 SLP133 P0000 60000 T10171039 51009

KSTL 240251Z 14009KT 10SM FEW120 SCT200 19/12 A2954 RMK AO2 SLP999 T01890122 56005

KTPA 240328Z 36007KT 10SM FEW028 BKN037 21/17 A2977 RMK AO2 T02110167


Page loaded:  03:38 UTC  |   07:38 PM Pacific  |   08:38 PM Mountain  |   09:38 PM Central  |   10:38 PM Eastern

 

ADVISORIES

FORECASTS

FORECASTS

OBSERVATIONS

USER TOOLS

ABOUT US